sensor_id;sensor_type;location;lat;lon;timestamp;P1;durP1;ratioP1;P2;durP2;ratioP2
60306;SDS011;46155;52.364;6.580;2023-11-19T04:00:44;42.87;;;37.93;;
60306;SDS011;46155;52.364;6.580;2023-11-19T04:03:09;47.17;;;37.67;;
60306;SDS011;46155;52.364;6.580;2023-11-19T04:05:34;39.97;;;36.03;;
60306;SDS011;46155;52.364;6.580;2023-11-19T04:08:00;62.17;;;34.37;;
60306;SDS011;46155;52.364;6.580;2023-11-19T04:10:25;53.97;;;36.10;;
60306;SDS011;46155;52.364;6.580;2023-11-19T04:12:52;59.10;;;34.30;;
60306;SDS011;46155;52.364;6.580;2023-11-19T04:15:17;57.60;;;34.20;;
60306;SDS011;46155;52.364;6.580;2023-11-19T04:17:43;62.20;;;33.93;;
60306;SDS011;46155;52.364;6.580;2023-11-19T04:20:08;60.60;;;34.43;;
60306;SDS011;46155;52.364;6.580;2023-11-19T04:22:37;41.70;;;32.50;;
60306;SDS011;46155;52.364;6.580;2023-11-19T04:25:03;41.50;;;31.17;;
60306;SDS011;46155;52.364;6.580;2023-11-19T04:27:29;45.43;;;32.50;;
60306;SDS011;46155;52.364;6.580;2023-11-19T04:29:55;48.07;;;33.00;;
60306;SDS011;46155;52.364;6.580;2023-11-19T04:32:20;62.93;;;34.50;;
60306;SDS011;46155;52.364;6.580;2023-11-19T04:34:46;51.47;;;34.63;;
60306;SDS011;46155;52.364;6.580;2023-11-19T04:37:11;49.60;;;32.27;;
60306;SDS011;46155;52.364;6.580;2023-11-19T04:39:36;55.50;;;33.27;;
60306;SDS011;46155;52.364;6.580;2023-11-19T04:42:02;48.50;;;31.37;;
60306;SDS011;46155;52.364;6.580;2023-11-19T04:44:29;53.83;;;33.43;;
60306;SDS011;46155;52.364;6.580;2023-11-19T04:46:55;54.33;;;33.87;;
60306;SDS011;46155;52.364;6.580;2023-11-19T04:49:20;49.83;;;33.17;;
60306;SDS011;46155;52.364;6.580;2023-11-19T04:51:45;51.27;;;33.80;;
60306;SDS011;46155;52.364;6.580;2023-11-19T04:54:14;39.83;;;31.37;;
60306;SDS011;46155;52.364;6.580;2023-11-19T04:56:40;51.93;;;33.87;;
60306;SDS011;46155;52.364;6.580;2023-11-19T04:59:05;46.13;;;32.53;;
60306;SDS011;46155;52.364;6.580;2023-11-19T05:01:34;43.63;;;31.87;;
60306;SDS011;46155;52.364;6.580;2023-11-19T05:04:00;46.07;;;31.47;;
60306;SDS011;46155;52.364;6.580;2023-11-19T05:06:27;63.43;;;31.67;;
60306;SDS011;46155;52.364;6.580;2023-11-19T05:08:56;57.70;;;32.50;;
60306;SDS011;46155;52.364;6.580;2023-11-19T05:11:23;54.50;;;30.83;;
60306;SDS011;46155;52.364;6.580;2023-11-19T05:13:48;63.97;;;31.90;;
60306;SDS011;46155;52.364;6.580;2023-11-19T05:16:15;47.40;;;30.63;;
60306;SDS011;46155;52.364;6.580;2023-11-19T05:18:41;51.70;;;29.50;;
60306;SDS011;46155;52.364;6.580;2023-11-19T05:21:06;45.23;;;29.57;;
60306;SDS011;46155;52.364;6.580;2023-11-19T05:23:32;61.57;;;28.87;;
60306;SDS011;46155;52.364;6.580;2023-11-19T05:25:59;58.13;;;28.17;;
60306;SDS011;46155;52.364;6.580;2023-11-19T05:28:25;58.13;;;30.20;;
60306;SDS011;46155;52.364;6.580;2023-11-19T05:30:51;48.00;;;28.87;;
60306;SDS011;46155;52.364;6.580;2023-11-19T05:33:16;43.13;;;26.50;;
60306;SDS011;46155;52.364;6.580;2023-11-19T05:35:41;56.13;;;28.33;;
60306;SDS011;46155;52.364;6.580;2023-11-19T05:38:07;48.87;;;26.20;;
60306;SDS011;46155;52.364;6.580;2023-11-19T05:40:32;63.63;;;26.50;;
60306;SDS011;46155;52.364;6.580;2023-11-19T05:42:57;50.90;;;27.80;;
60306;SDS011;46155;52.364;6.580;2023-11-19T05:45:23;48.40;;;25.60;;
60306;SDS011;46155;52.364;6.580;2023-11-19T05:47:48;57.90;;;24.77;;
60306;SDS011;46155;52.364;6.580;2023-11-19T05:50:13;57.57;;;25.63;;
60306;SDS011;46155;52.364;6.580;2023-11-19T05:52:39;54.63;;;24.23;;
60306;SDS011;46155;52.364;6.580;2023-11-19T05:55:05;48.43;;;22.90;;
60306;SDS011;46155;52.364;6.580;2023-11-19T05:57:34;40.17;;;23.80;;
60306;SDS011;46155;52.364;6.580;2023-11-19T05:59:59;47.10;;;24.23;;
60306;SDS011;46155;52.364;6.580;2023-11-19T06:02:25;50.80;;;24.00;;
60306;SDS011;46155;52.364;6.580;2023-11-19T06:04:52;47.60;;;23.33;;
60306;SDS011;46155;52.364;6.580;2023-11-19T06:07:18;55.70;;;24.97;;
60306;SDS011;46155;52.364;6.580;2023-11-19T06:09:43;58.70;;;25.33;;
60306;SDS011;46155;52.364;6.580;2023-11-19T06:12:08;48.87;;;24.37;;
60306;SDS011;46155;52.364;6.580;2023-11-19T06:14:34;49.27;;;23.03;;
60306;SDS011;46155;52.364;6.580;2023-11-19T06:16:59;40.77;;;22.67;;
60306;SDS011;46155;52.364;6.580;2023-11-19T06:19:25;48.33;;;23.77;;
60306;SDS011;46155;52.364;6.580;2023-11-19T06:21:50;55.43;;;25.43;;
60306;SDS011;46155;52.364;6.580;2023-11-19T06:24:15;45.70;;;23.07;;
60306;SDS011;46155;52.364;6.580;2023-11-19T06:26:41;62.67;;;22.63;;
60306;SDS011;46155;52.364;6.580;2023-11-19T06:29:06;46.80;;;21.73;;
60306;SDS011;46155;52.364;6.580;2023-11-19T06:31:32;40.70;;;22.20;;
60306;SDS011;46155;52.364;6.580;2023-11-19T06:33:57;37.67;;;20.67;;
60306;SDS011;46155;52.364;6.580;2023-11-19T06:36:22;38.93;;;20.07;;
60306;SDS011;46155;52.364;6.580;2023-11-19T06:38:47;58.77;;;22.30;;
60306;SDS011;46155;52.364;6.580;2023-11-19T06:41:13;48.53;;;22.07;;
60306;SDS011;46155;52.364;6.580;2023-11-19T06:43:38;33.83;;;20.63;;
60306;SDS011;46155;52.364;6.580;2023-11-19T06:46:04;50.00;;;21.77;;
60306;SDS011;46155;52.364;6.580;2023-11-19T06:48:31;65.47;;;21.90;;
60306;SDS011;46155;52.364;6.580;2023-11-19T06:50:57;53.63;;;20.70;;
60306;SDS011;46155;52.364;6.580;2023-11-19T06:53:23;36.13;;;20.33;;
60306;SDS011;46155;52.364;6.580;2023-11-19T06:55:48;61.53;;;20.30;;
60306;SDS011;46155;52.364;6.580;2023-11-19T06:58:13;50.93;;;21.60;;
60306;SDS011;46155;52.364;6.580;2023-11-19T07:00:38;55.73;;;19.57;;
60306;SDS011;46155;52.364;6.580;2023-11-19T07:03:04;53.17;;;19.80;;
60306;SDS011;46155;52.364;6.580;2023-11-19T07:05:31;49.23;;;21.90;;
60306;SDS011;46155;52.364;6.580;2023-11-19T07:07:56;42.00;;;18.43;;
60306;SDS011;46155;52.364;6.580;2023-11-19T07:10:21;51.60;;;19.63;;
60306;SDS011;46155;52.364;6.580;2023-11-19T07:12:47;35.00;;;17.83;;
60306;SDS011;46155;52.364;6.580;2023-11-19T07:15:14;42.90;;;18.93;;
60306;SDS011;46155;52.364;6.580;2023-11-19T07:17:39;60.70;;;19.90;;
60306;SDS011;46155;52.364;6.580;2023-11-19T07:20:05;54.20;;;19.07;;
60306;SDS011;46155;52.364;6.580;2023-11-19T07:22:30;48.07;;;18.13;;
60306;SDS011;46155;52.364;6.580;2023-11-19T07:24:56;51.67;;;18.43;;
60306;SDS011;46155;52.364;6.580;2023-11-19T07:27:22;59.43;;;18.60;;
60306;SDS011;46155;52.364;6.580;2023-11-19T07:29:49;37.77;;;17.57;;
60306;SDS011;46155;52.364;6.580;2023-11-19T07:32:14;48.47;;;17.47;;
60306;SDS011;46155;52.364;6.580;2023-11-19T07:34:39;48.53;;;17.80;;
60306;SDS011;46155;52.364;6.580;2023-11-19T07:37:05;45.90;;;17.20;;
60306;SDS011;46155;52.364;6.580;2023-11-19T07:39:30;54.03;;;19.10;;
60306;SDS011;46155;52.364;6.580;2023-11-19T07:41:56;42.80;;;16.93;;
60306;SDS011;46155;52.364;6.580;2023-11-19T07:44:21;42.87;;;16.93;;
60306;SDS011;46155;52.364;6.580;2023-11-19T07:46:47;46.27;;;18.23;;
60306;SDS011;46155;52.364;6.580;2023-11-19T07:49:13;46.40;;;17.50;;
60306;SDS011;46155;52.364;6.580;2023-11-19T07:51:38;43.27;;;17.53;;
60306;SDS011;46155;52.364;6.580;2023-11-19T07:54:04;50.57;;;17.33;;
60306;SDS011;46155;52.364;6.580;2023-11-19T07:56:29;55.00;;;18.80;;
60306;SDS011;46155;52.364;6.580;2023-11-19T07:58:54;48.67;;;16.40;;
60306;SDS011;46155;52.364;6.580;2023-11-19T08:01:20;48.63;;;17.03;;
60306;SDS011;46155;52.364;6.580;2023-11-19T08:03:45;48.03;;;16.80;;
60306;SDS011;46155;52.364;6.580;2023-11-19T08:06:10;48.87;;;17.23;;
60306;SDS011;46155;52.364;6.580;2023-11-19T08:08:36;56.63;;;17.10;;
60306;SDS011;46155;52.364;6.580;2023-11-19T08:11:03;53.60;;;17.33;;
60306;SDS011;46155;52.364;6.580;2023-11-19T08:13:30;48.73;;;17.67;;
60306;SDS011;46155;52.364;6.580;2023-11-19T08:15:56;39.90;;;14.63;;
60306;SDS011;46155;52.364;6.580;2023-11-19T08:18:23;44.23;;;15.83;;
60306;SDS011;46155;52.364;6.580;2023-11-19T08:20:48;53.43;;;16.57;;
60306;SDS011;46155;52.364;6.580;2023-11-19T08:23:17;49.30;;;16.37;;
60306;SDS011;46155;52.364;6.580;2023-11-19T08:25:43;42.77;;;14.53;;
60306;SDS011;46155;52.364;6.580;2023-11-19T08:28:09;54.33;;;16.33;;
60306;SDS011;46155;52.364;6.580;2023-11-19T08:30:34;41.93;;;15.57;;
60306;SDS011;46155;52.364;6.580;2023-11-19T08:33:00;43.40;;;14.47;;
60306;SDS011;46155;52.364;6.580;2023-11-19T08:35:28;41.63;;;16.57;;
60306;SDS011;46155;52.364;6.580;2023-11-19T08:37:53;39.67;;;15.10;;
60306;SDS011;46155;52.364;6.580;2023-11-19T08:40:19;44.57;;;16.53;;
60306;SDS011;46155;52.364;6.580;2023-11-19T08:42:45;46.07;;;17.03;;
60306;SDS011;46155;52.364;6.580;2023-11-19T08:45:10;44.80;;;14.40;;
60306;SDS011;46155;52.364;6.580;2023-11-19T08:47:39;40.03;;;16.27;;
60306;SDS011;46155;52.364;6.580;2023-11-19T08:50:05;39.90;;;13.77;;
60306;SDS011;46155;52.364;6.580;2023-11-19T08:52:31;37.50;;;14.83;;
60306;SDS011;46155;52.364;6.580;2023-11-19T08:54:56;43.37;;;13.33;;
60306;SDS011;46155;52.364;6.580;2023-11-19T08:57:22;58.63;;;16.60;;
60306;SDS011;46155;52.364;6.580;2023-11-19T08:59:47;37.50;;;12.97;;
60306;SDS011;46155;52.364;6.580;2023-11-19T09:02:12;42.87;;;13.70;;
60306;SDS011;46155;52.364;6.580;2023-11-19T09:04:38;32.80;;;12.53;;
60306;SDS011;46155;52.364;6.580;2023-11-19T09:07:03;42.00;;;13.47;;
60306;SDS011;46155;52.364;6.580;2023-11-19T09:09:29;33.43;;;12.30;;
60306;SDS011;46155;52.364;6.580;2023-11-19T09:11:55;46.03;;;14.53;;
60306;SDS011;46155;52.364;6.580;2023-11-19T09:14:20;45.23;;;13.60;;
60306;SDS011;46155;52.364;6.580;2023-11-19T09:16:50;44.90;;;13.80;;
60306;SDS011;46155;52.364;6.580;2023-11-19T09:19:16;41.93;;;12.97;;
60306;SDS011;46155;52.364;6.580;2023-11-19T09:21:42;30.23;;;12.00;;
60306;SDS011;46155;52.364;6.580;2023-11-19T09:24:08;38.13;;;14.27;;
60306;SDS011;46155;52.364;6.580;2023-11-19T09:26:33;46.73;;;13.67;;
60306;SDS011;46155;52.364;6.580;2023-11-19T09:28:59;47.70;;;15.90;;
60306;SDS011;46155;52.364;6.580;2023-11-19T09:31:24;32.03;;;12.63;;
60306;SDS011;46155;52.364;6.580;2023-11-19T09:33:50;35.77;;;12.47;;
60306;SDS011;46155;52.364;6.580;2023-11-19T09:36:15;45.97;;;14.40;;
60306;SDS011;46155;52.364;6.580;2023-11-19T09:38:41;49.57;;;16.10;;
60306;SDS011;46155;52.364;6.580;2023-11-19T09:41:07;45.40;;;13.20;;
60306;SDS011;46155;52.364;6.580;2023-11-19T09:43:34;41.47;;;13.00;;
60306;SDS011;46155;52.364;6.580;2023-11-19T09:46:04;48.00;;;14.00;;
60306;SDS011;46155;52.364;6.580;2023-11-19T09:48:32;37.47;;;12.67;;
60306;SDS011;46155;52.364;6.580;2023-11-19T09:51:00;50.77;;;13.90;;
60306;SDS011;46155;52.364;6.580;2023-11-19T09:53:26;36.07;;;12.50;;
60306;SDS011;46155;52.364;6.580;2023-11-19T09:55:52;42.30;;;13.23;;
60306;SDS011;46155;52.364;6.580;2023-11-19T09:58:18;49.60;;;12.70;;
60306;SDS011;46155;52.364;6.580;2023-11-19T10:00:43;41.10;;;11.67;;
60306;SDS011;46155;52.364;6.580;2023-11-19T10:03:09;39.87;;;11.63;;
60306;SDS011;46155;52.364;6.580;2023-11-19T10:05:37;42.97;;;13.80;;
60306;SDS011;46155;52.364;6.580;2023-11-19T10:08:04;45.40;;;13.23;;
60306;SDS011;46155;52.364;6.580;2023-11-19T10:10:29;45.03;;;12.67;;
60306;SDS011;46155;52.364;6.580;2023-11-19T10:15:21;33.05;;;11.10;;
60306;SDS011;46155;52.364;6.580;2023-11-19T10:17:50;50.00;;;12.13;;
60306;SDS011;46155;52.364;6.580;2023-11-19T10:20:16;32.17;;;11.13;;
60306;SDS011;46155;52.364;6.580;2023-11-19T10:22:42;41.47;;;11.93;;
60306;SDS011;46155;52.364;6.580;2023-11-19T10:25:22;29.87;;;10.23;;
60306;SDS011;46155;52.364;6.580;2023-11-19T10:27:50;42.70;;;12.53;;
60306;SDS011;46155;52.364;6.580;2023-11-19T10:30:24;49.23;;;12.07;;
60306;SDS011;46155;52.364;6.580;2023-11-19T10:33:10;36.10;;;11.77;;
60306;SDS011;46155;52.364;6.580;2023-11-19T10:35:54;31.17;;;10.70;;
60306;SDS011;46155;52.364;6.580;2023-11-19T10:38:21;25.10;;;10.03;;
60306;SDS011;46155;52.364;6.580;2023-11-19T10:40:48;33.20;;;11.40;;
60306;SDS011;46155;52.364;6.580;2023-11-19T10:43:13;29.87;;;11.47;;
60306;SDS011;46155;52.364;6.580;2023-11-19T10:45:39;39.10;;;11.60;;
60306;SDS011;46155;52.364;6.580;2023-11-19T10:48:05;35.50;;;10.80;;
60306;SDS011;46155;52.364;6.580;2023-11-19T10:50:35;36.67;;;12.50;;
60306;SDS011;46155;52.364;6.580;2023-11-19T10:53:01;39.83;;;11.30;;
60306;SDS011;46155;52.364;6.580;2023-11-19T10:55:29;42.67;;;11.17;;
60306;SDS011;46155;52.364;6.580;2023-11-19T10:58:09;45.47;;;10.93;;
60306;SDS011;46155;52.364;6.580;2023-11-19T11:03:09;38.63;;;10.97;;
60306;SDS011;46155;52.364;6.580;2023-11-19T11:05:36;41.63;;;10.87;;
60306;SDS011;46155;52.364;6.580;2023-11-19T11:08:04;31.90;;;9.97;;
60306;SDS011;46155;52.364;6.580;2023-11-19T11:10:31;31.17;;;11.10;;
60306;SDS011;46155;52.364;6.580;2023-11-19T11:13:01;42.50;;;11.70;;
60306;SDS011;46155;52.364;6.580;2023-11-19T11:15:28;39.63;;;12.85;;
60306;SDS011;46155;52.364;6.580;2023-11-19T11:17:57;38.00;;;11.87;;
60306;SDS011;46155;52.364;6.580;2023-11-19T11:20:26;39.03;;;12.30;;
60306;SDS011;46155;52.364;6.580;2023-11-19T11:31:07;43.20;;;12.33;;
60306;SDS011;46155;52.364;6.580;2023-11-19T11:36:28;33.43;;;10.27;;
60306;SDS011;46155;52.364;6.580;2023-11-19T11:39:03;29.43;;;9.93;;
60306;SDS011;46155;52.364;6.580;2023-11-19T11:41:32;40.70;;;10.47;;
60306;SDS011;46155;52.364;6.580;2023-11-19T11:43:58;31.30;;;10.07;;
60306;SDS011;46155;52.364;6.580;2023-11-19T11:49:04;41.27;;;12.37;;
60306;SDS011;46155;52.364;6.580;2023-11-19T11:54:10;40.55;;;12.00;;
60306;SDS011;46155;52.364;6.580;2023-11-19T11:56:37;36.35;;;11.65;;
60306;SDS011;46155;52.364;6.580;2023-11-19T11:59:03;37.83;;;11.80;;
60306;SDS011;46155;52.364;6.580;2023-11-19T12:01:32;29.70;;;10.57;;
60306;SDS011;46155;52.364;6.580;2023-11-19T12:03:57;32.87;;;9.23;;
60306;SDS011;46155;52.364;6.580;2023-11-19T12:06:23;40.20;;;10.77;;
60306;SDS011;46155;52.364;6.580;2023-11-19T12:08:49;28.23;;;9.47;;
60306;SDS011;46155;52.364;6.580;2023-11-19T12:11:14;35.57;;;9.50;;
60306;SDS011;46155;52.364;6.580;2023-11-19T12:13:54;32.10;;;10.13;;
60306;SDS011;46155;52.364;6.580;2023-11-19T12:16:23;31.40;;;9.90;;
60306;SDS011;46155;52.364;6.580;2023-11-19T12:18:48;33.00;;;10.53;;
60306;SDS011;46155;52.364;6.580;2023-11-19T12:21:32;30.30;;;10.60;;
60306;SDS011;46155;52.364;6.580;2023-11-19T12:23:58;25.60;;;10.50;;
60306;SDS011;46155;52.364;6.580;2023-11-19T12:26:36;43.23;;;11.13;;
60306;SDS011;46155;52.364;6.580;2023-11-19T12:29:02;21.70;;;10.77;;
60306;SDS011;46155;52.364;6.580;2023-11-19T12:31:31;31.77;;;11.67;;
60306;SDS011;46155;52.364;6.580;2023-11-19T12:33:56;31.80;;;11.77;;
60306;SDS011;46155;52.364;6.580;2023-11-19T12:36:22;27.13;;;11.97;;
60306;SDS011;46155;52.364;6.580;2023-11-19T12:38:47;30.30;;;11.97;;
60306;SDS011;46155;52.364;6.580;2023-11-19T12:41:13;29.47;;;12.37;;
60306;SDS011;46155;52.364;6.580;2023-11-19T12:43:42;37.90;;;12.57;;
60306;SDS011;46155;52.364;6.580;2023-11-19T12:46:20;32.90;;;13.27;;
60306;SDS011;46155;52.364;6.580;2023-11-19T12:48:47;28.17;;;13.20;;
60306;SDS011;46155;52.364;6.580;2023-11-19T12:51:13;24.87;;;10.63;;
60306;SDS011;46155;52.364;6.580;2023-11-19T12:53:56;25.87;;;11.53;;
60306;SDS011;46155;52.364;6.580;2023-11-19T12:56:23;34.83;;;10.63;;
60306;SDS011;46155;52.364;6.580;2023-11-19T12:58:49;31.60;;;10.47;;
60306;SDS011;46155;52.364;6.580;2023-11-19T13:01:15;37.77;;;11.93;;
60306;SDS011;46155;52.364;6.580;2023-11-19T13:03:43;43.57;;;11.50;;
60306;SDS011;46155;52.364;6.580;2023-11-19T13:06:09;34.10;;;12.17;;
60306;SDS011;46155;52.364;6.580;2023-11-19T13:08:45;37.47;;;11.20;;
60306;SDS011;46155;52.364;6.580;2023-11-19T13:11:15;29.93;;;9.53;;
60306;SDS011;46155;52.364;6.580;2023-11-19T13:13:59;38.07;;;11.97;;
60306;SDS011;46155;52.364;6.580;2023-11-19T13:16:33;33.50;;;11.67;;
60306;SDS011;46155;52.364;6.580;2023-11-19T13:19:01;32.97;;;11.70;;
60306;SDS011;46155;52.364;6.580;2023-11-19T13:21:27;26.20;;;10.97;;
60306;SDS011;46155;52.364;6.580;2023-11-19T13:23:55;40.67;;;12.57;;
60306;SDS011;46155;52.364;6.580;2023-11-19T13:26:21;44.30;;;12.03;;
60306;SDS011;46155;52.364;6.580;2023-11-19T13:28:47;32.43;;;11.20;;
60306;SDS011;46155;52.364;6.580;2023-11-19T13:31:12;32.67;;;11.37;;
60306;SDS011;46155;52.364;6.580;2023-11-19T13:33:37;25.20;;;12.00;;
60306;SDS011;46155;52.364;6.580;2023-11-19T13:36:03;38.07;;;13.00;;
60306;SDS011;46155;52.364;6.580;2023-11-19T13:38:33;34.90;;;16.10;;
60306;SDS011;46155;52.364;6.580;2023-11-19T13:41:00;38.40;;;13.53;;
60306;SDS011;46155;52.364;6.580;2023-11-19T13:43:25;27.53;;;14.80;;
60306;SDS011;46155;52.364;6.580;2023-11-19T13:45:53;30.90;;;14.90;;
60306;SDS011;46155;52.364;6.580;2023-11-19T13:48:19;38.03;;;15.23;;
60306;SDS011;46155;52.364;6.580;2023-11-19T13:50:44;44.80;;;16.83;;
60306;SDS011;46155;52.364;6.580;2023-11-19T13:53:10;27.23;;;16.83;;
60306;SDS011;46155;52.364;6.580;2023-11-19T13:55:35;34.13;;;15.90;;
60306;SDS011;46155;52.364;6.580;2023-11-19T13:58:01;44.10;;;16.70;;
60306;SDS011;46155;52.364;6.580;2023-11-19T14:00:26;43.83;;;16.60;;
60306;SDS011;46155;52.364;6.580;2023-11-19T14:02:51;38.70;;;16.80;;
60306;SDS011;46155;52.364;6.580;2023-11-19T14:05:17;35.60;;;15.47;;
60306;SDS011;46155;52.364;6.580;2023-11-19T14:07:42;35.33;;;16.83;;
60306;SDS011;46155;52.364;6.580;2023-11-19T14:10:09;26.90;;;15.53;;
60306;SDS011;46155;52.364;6.580;2023-11-19T14:12:36;40.03;;;20.07;;
60306;SDS011;46155;52.364;6.580;2023-11-19T14:15:02;34.23;;;16.93;;
60306;SDS011;46155;52.364;6.580;2023-11-19T14:17:32;43.33;;;17.57;;
60306;SDS011;46155;52.364;6.580;2023-11-19T14:19:58;35.03;;;19.10;;
60306;SDS011;46155;52.364;6.580;2023-11-19T14:22:24;26.30;;;17.53;;
60306;SDS011;46155;52.364;6.580;2023-11-19T14:24:49;35.67;;;17.53;;
60306;SDS011;46155;52.364;6.580;2023-11-19T14:27:15;32.20;;;16.37;;
60306;SDS011;46155;52.364;6.580;2023-11-19T14:29:42;30.73;;;17.00;;
60306;SDS011;46155;52.364;6.580;2023-11-19T14:32:07;26.63;;;16.53;;
60306;SDS011;46155;52.364;6.580;2023-11-19T14:34:32;32.07;;;14.53;;
60306;SDS011;46155;52.364;6.580;2023-11-19T14:36:58;36.20;;;16.17;;
60306;SDS011;46155;52.364;6.580;2023-11-19T14:39:24;33.63;;;14.90;;
60306;SDS011;46155;52.364;6.580;2023-11-19T14:41:49;29.50;;;17.03;;
60306;SDS011;46155;52.364;6.580;2023-11-19T14:44:15;36.87;;;15.50;;
60306;SDS011;46155;52.364;6.580;2023-11-19T14:46:41;28.40;;;14.53;;
60306;SDS011;46155;52.364;6.580;2023-11-19T14:49:07;33.07;;;14.27;;
60306;SDS011;46155;52.364;6.580;2023-11-19T14:51:36;32.20;;;16.93;;
60306;SDS011;46155;52.364;6.580;2023-11-19T14:54:05;43.23;;;18.73;;
60306;SDS011;46155;52.364;6.580;2023-11-19T14:56:30;34.00;;;16.80;;
60306;SDS011;46155;52.364;6.580;2023-11-19T14:58:56;25.27;;;18.33;;
60306;SDS011;46155;52.364;6.580;2023-11-19T15:01:21;36.60;;;18.50;;
60306;SDS011;46155;52.364;6.580;2023-11-19T15:03:47;38.77;;;18.60;;
60306;SDS011;46155;52.364;6.580;2023-11-19T15:06:12;29.93;;;18.73;;
60306;SDS011;46155;52.364;6.580;2023-11-19T15:08:38;24.97;;;18.70;;
60306;SDS011;46155;52.364;6.580;2023-11-19T15:11:03;28.93;;;17.63;;
60306;SDS011;46155;52.364;6.580;2023-11-19T15:13:31;31.93;;;19.60;;
60306;SDS011;46155;52.364;6.580;2023-11-19T15:15:57;32.43;;;18.80;;
60306;SDS011;46155;52.364;6.580;2023-11-19T15:18:22;32.57;;;20.10;;
60306;SDS011;46155;52.364;6.580;2023-11-19T15:20:48;40.10;;;19.77;;
60306;SDS011;46155;52.364;6.580;2023-11-19T15:23:13;38.40;;;18.30;;
60306;SDS011;46155;52.364;6.580;2023-11-19T15:25:40;32.00;;;19.30;;
60306;SDS011;46155;52.364;6.580;2023-11-19T15:28:06;36.80;;;20.47;;
60306;SDS011;46155;52.364;6.580;2023-11-19T15:30:31;36.77;;;20.97;;
60306;SDS011;46155;52.364;6.580;2023-11-19T15:32:56;34.00;;;20.10;;
60306;SDS011;46155;52.364;6.580;2023-11-19T15:35:22;29.03;;;17.80;;
60306;SDS011;46155;52.364;6.580;2023-11-19T15:37:47;34.67;;;20.37;;
60306;SDS011;46155;52.364;6.580;2023-11-19T15:40:13;28.77;;;18.83;;
60306;SDS011;46155;52.364;6.580;2023-11-19T15:42:39;32.43;;;21.47;;
60306;SDS011;46155;52.364;6.580;2023-11-19T15:45:05;35.63;;;20.20;;
60306;SDS011;46155;52.364;6.580;2023-11-19T15:47:32;39.00;;;21.50;;
60306;SDS011;46155;52.364;6.580;2023-11-19T15:50:00;34.07;;;21.77;;
60306;SDS011;46155;52.364;6.580;2023-11-19T15:52:30;35.03;;;20.30;;
60306;SDS011;46155;52.364;6.580;2023-11-19T15:54:56;44.87;;;21.67;;
60306;SDS011;46155;52.364;6.580;2023-11-19T15:57:22;37.80;;;21.00;;
60306;SDS011;46155;52.364;6.580;2023-11-19T15:59:47;36.27;;;21.47;;
60306;SDS011;46155;52.364;6.580;2023-11-19T16:02:16;32.90;;;20.50;;
60306;SDS011;46155;52.364;6.580;2023-11-19T16:04:41;47.03;;;20.73;;
60306;SDS011;46155;52.364;6.580;2023-11-19T16:07:07;30.63;;;23.47;;
60306;SDS011;46155;52.364;6.580;2023-11-19T16:09:32;33.63;;;20.40;;
60306;SDS011;46155;52.364;6.580;2023-11-19T16:11:58;29.60;;;21.00;;
60306;SDS011;46155;52.364;6.580;2023-11-19T16:14:23;30.33;;;20.60;;
60306;SDS011;46155;52.364;6.580;2023-11-19T16:16:49;37.20;;;21.43;;
60306;SDS011;46155;52.364;6.580;2023-11-19T16:19:15;43.43;;;19.87;;
60306;SDS011;46155;52.364;6.580;2023-11-19T16:21:41;31.37;;;18.10;;
60306;SDS011;46155;52.364;6.580;2023-11-19T16:24:06;43.50;;;20.47;;
60306;SDS011;46155;52.364;6.580;2023-11-19T16:26:32;39.53;;;17.97;;
60306;SDS011;46155;52.364;6.580;2023-11-19T16:29:00;32.17;;;19.07;;
60306;SDS011;46155;52.364;6.580;2023-11-19T16:31:25;31.97;;;19.33;;
60306;SDS011;46155;52.364;6.580;2023-11-19T16:33:51;38.80;;;20.07;;
60306;SDS011;46155;52.364;6.580;2023-11-19T16:36:16;43.60;;;23.27;;
60306;SDS011;46155;52.364;6.580;2023-11-19T16:38:42;42.37;;;19.20;;
60306;SDS011;46155;52.364;6.580;2023-11-19T16:41:08;27.03;;;20.30;;
60306;SDS011;46155;52.364;6.580;2023-11-19T16:43:33;36.10;;;18.90;;
60306;SDS011;46155;52.364;6.580;2023-11-19T16:45:59;31.50;;;18.37;;
60306;SDS011;46155;52.364;6.580;2023-11-19T16:48:24;27.90;;;17.47;;
60306;SDS011;46155;52.364;6.580;2023-11-19T16:50:50;40.80;;;16.07;;
60306;SDS011;46155;52.364;6.580;2023-11-19T16:53:16;39.38;;;19.73;;
60306;SDS011;46155;52.364;6.580;2023-11-19T16:55:41;39.23;;;16.63;;
60306;SDS011;46155;52.364;6.580;2023-11-19T16:58:07;32.37;;;15.37;;
60306;SDS011;46155;52.364;6.580;2023-11-19T17:00:34;37.47;;;16.23;;
60306;SDS011;46155;52.364;6.580;2023-11-19T17:03:02;32.43;;;16.67;;
60306;SDS011;46155;52.364;6.580;2023-11-19T17:05:27;44.57;;;19.30;;
60306;SDS011;46155;52.364;6.580;2023-11-19T17:07:53;22.00;;;18.63;;
60306;SDS011;46155;52.364;6.580;2023-11-19T17:10:19;35.73;;;16.87;;
60306;SDS011;46155;52.364;6.580;2023-11-19T17:12:44;34.70;;;16.53;;
60306;SDS011;46155;52.364;6.580;2023-11-19T17:15:10;48.77;;;18.47;;
60306;SDS011;46155;52.364;6.580;2023-11-19T17:17:35;34.87;;;16.57;;
60306;SDS011;46155;52.364;6.580;2023-11-19T17:20:04;27.93;;;16.30;;
60306;SDS011;46155;52.364;6.580;2023-11-19T17:22:35;36.30;;;15.80;;
60306;SDS011;46155;52.364;6.580;2023-11-19T17:25:01;47.23;;;18.80;;
60306;SDS011;46155;52.364;6.580;2023-11-19T17:27:28;38.67;;;17.13;;
60306;SDS011;46155;52.364;6.580;2023-11-19T17:29:55;26.97;;;16.50;;
60306;SDS011;46155;52.364;6.580;2023-11-19T17:32:20;30.13;;;17.03;;
60306;SDS011;46155;52.364;6.580;2023-11-19T17:34:46;27.43;;;16.53;;
60306;SDS011;46155;52.364;6.580;2023-11-19T17:37:11;34.33;;;17.40;;
60306;SDS011;46155;52.364;6.580;2023-11-19T17:39:37;36.93;;;18.37;;
60306;SDS011;46155;52.364;6.580;2023-11-19T17:42:02;28.70;;;18.43;;
60306;SDS011;46155;52.364;6.580;2023-11-19T17:44:28;24.47;;;17.70;;
60306;SDS011;46155;52.364;6.580;2023-11-19T17:46:54;34.73;;;17.27;;
60306;SDS011;46155;52.364;6.580;2023-11-19T17:49:19;33.53;;;16.57;;
60306;SDS011;46155;52.364;6.580;2023-11-19T17:51:44;28.60;;;16.77;;
60306;SDS011;46155;52.364;6.580;2023-11-19T17:54:10;25.57;;;19.43;;
60306;SDS011;46155;52.364;6.580;2023-11-19T17:56:35;31.83;;;17.47;;
60306;SDS011;46155;52.364;6.580;2023-11-19T17:59:00;28.43;;;16.03;;
60306;SDS011;46155;52.364;6.580;2023-11-19T18:01:26;28.63;;;17.63;;
60306;SDS011;46155;52.364;6.580;2023-11-19T18:03:51;33.50;;;17.63;;
60306;SDS011;46155;52.364;6.580;2023-11-19T18:06:17;31.33;;;18.53;;
60306;SDS011;46155;52.364;6.580;2023-11-19T18:08:43;20.63;;;16.93;;
60306;SDS011;46155;52.364;6.580;2023-11-19T18:11:08;20.97;;;17.60;;
60306;SDS011;46155;52.364;6.580;2023-11-19T18:13:37;26.00;;;19.30;;
60306;SDS011;46155;52.364;6.580;2023-11-19T18:16:02;19.60;;;17.67;;
60306;SDS011;46155;52.364;6.580;2023-11-19T18:18:27;25.90;;;18.33;;
60306;SDS011;46155;52.364;6.580;2023-11-19T18:20:53;21.30;;;18.53;;
60306;SDS011;46155;52.364;6.580;2023-11-19T18:23:18;28.93;;;19.20;;
60306;SDS011;46155;52.364;6.580;2023-11-19T18:25:43;24.77;;;20.27;;
60306;SDS011;46155;52.364;6.580;2023-11-19T18:28:11;25.60;;;19.67;;
60306;SDS011;46155;52.364;6.580;2023-11-19T18:30:37;22.37;;;20.00;;
60306;SDS011;46155;52.364;6.580;2023-11-19T18:33:02;28.50;;;20.47;;
60306;SDS011;46155;52.364;6.580;2023-11-19T18:35:28;31.43;;;20.93;;
60306;SDS011;46155;52.364;6.580;2023-11-19T18:37:53;24.00;;;21.53;;